sensor_id;sensor_type;location;lat;lon;timestamp;temperature;humidity
38854;DHT22;24606;51.992;4.198;2023-07-09T00:03:00;32.70;54.60
38854;DHT22;24606;51.992;4.198;2023-07-09T00:08:02;32.60;54.60
38854;DHT22;24606;51.992;4.198;2023-07-09T00:13:04;32.50;54.70
38854;DHT22;24606;51.992;4.198;2023-07-09T00:18:07;32.50;54.90
38854;DHT22;24606;51.992;4.198;2023-07-09T00:23:10;32.50;54.90
38854;DHT22;24606;51.992;4.198;2023-07-09T00:28:15;32.40;55.00
38854;DHT22;24606;51.992;4.198;2023-07-09T00:33:18;32.40;55.20
38854;DHT22;24606;51.992;4.198;2023-07-09T00:38:22;32.30;55.20
38854;DHT22;24606;51.992;4.198;2023-07-09T00:43:24;32.30;55.30
38854;DHT22;24606;51.992;4.198;2023-07-09T00:48:27;32.30;55.40
38854;DHT22;24606;51.992;4.198;2023-07-09T00:53:32;32.20;55.50
38854;DHT22;24606;51.992;4.198;2023-07-09T00:58:35;32.10;55.50
38854;DHT22;24606;51.992;4.198;2023-07-09T01:03:42;32.10;55.60
38854;DHT22;24606;51.992;4.198;2023-07-09T01:08:45;32.10;55.70
38854;DHT22;24606;51.992;4.198;2023-07-09T01:13:55;32.10;55.70
38854;DHT22;24606;51.992;4.198;2023-07-09T01:18:59;32.00;55.80
38854;DHT22;24606;51.992;4.198;2023-07-09T01:24:12;31.90;56.40
38854;DHT22;24606;51.992;4.198;2023-07-09T01:29:15;31.90;56.00
38854;DHT22;24606;51.992;4.198;2023-07-09T01:34:16;31.90;56.00
38854;DHT22;24606;51.992;4.198;2023-07-09T01:39:20;31.90;56.10
38854;DHT22;24606;51.992;4.198;2023-07-09T01:44:22;31.80;56.10
38854;DHT22;24606;51.992;4.198;2023-07-09T01:49:23;31.70;56.20
38854;DHT22;24606;51.992;4.198;2023-07-09T01:54:31;31.70;56.20
38854;DHT22;24606;51.992;4.198;2023-07-09T01:59:34;31.70;56.30
38854;DHT22;24606;51.992;4.198;2023-07-09T02:04:41;31.70;56.40
38854;DHT22;24606;51.992;4.198;2023-07-09T02:09:45;31.60;56.50
38854;DHT22;24606;51.992;4.198;2023-07-09T02:14:47;31.60;56.50
38854;DHT22;24606;51.992;4.198;2023-07-09T02:19:49;31.50;56.60
38854;DHT22;24606;51.992;4.198;2023-07-09T02:24:53;31.50;56.70
38854;DHT22;24606;51.992;4.198;2023-07-09T02:29:55;31.50;56.80
38854;DHT22;24606;51.992;4.198;2023-07-09T02:34:56;31.50;56.90
38854;DHT22;24606;51.992;4.198;2023-07-09T02:40:00;31.40;56.90
38854;DHT22;24606;51.992;4.198;2023-07-09T02:45:02;31.40;57.00
38854;DHT22;24606;51.992;4.198;2023-07-09T02:50:05;31.30;57.10
38854;DHT22;24606;51.992;4.198;2023-07-09T02:55:08;31.30;57.30
38854;DHT22;24606;51.992;4.198;2023-07-09T03:15:30;31.20;57.00
38854;DHT22;24606;51.992;4.198;2023-07-09T03:20:32;31.10;57.80
38854;DHT22;24606;51.992;4.198;2023-07-09T03:25:34;30.90;58.30
38854;DHT22;24606;51.992;4.198;2023-07-09T03:30:41;31.00;57.90
38854;DHT22;24606;51.992;4.198;2023-07-09T03:35:43;30.90;58.10
38854;DHT22;24606;51.992;4.198;2023-07-09T03:40:45;30.90;58.00
38854;DHT22;24606;51.992;4.198;2023-07-09T03:45:52;30.90;58.10
38854;DHT22;24606;51.992;4.198;2023-07-09T03:50:53;30.80;58.20
38854;DHT22;24606;51.992;4.198;2023-07-09T03:55:56;30.80;58.40
38854;DHT22;24606;51.992;4.198;2023-07-09T04:01:01;30.80;58.20
38854;DHT22;24606;51.992;4.198;2023-07-09T04:06:03;30.80;58.30
38854;DHT22;24606;51.992;4.198;2023-07-09T04:11:05;30.80;58.40
38854;DHT22;24606;51.992;4.198;2023-07-09T04:16:09;30.70;58.50
38854;DHT22;24606;51.992;4.198;2023-07-09T04:21:11;30.70;58.60
38854;DHT22;24606;51.992;4.198;2023-07-09T04:26:14;30.70;58.70
38854;DHT22;24606;51.992;4.198;2023-07-09T04:31:17;30.70;58.70
38854;DHT22;24606;51.992;4.198;2023-07-09T04:36:19;30.60;58.70
38854;DHT22;24606;51.992;4.198;2023-07-09T04:41:21;30.60;58.70
38854;DHT22;24606;51.992;4.198;2023-07-09T04:46:24;30.60;58.70
38854;DHT22;24606;51.992;4.198;2023-07-09T04:51:26;30.50;58.70
38854;DHT22;24606;51.992;4.198;2023-07-09T04:56:28;30.50;58.60
38854;DHT22;24606;51.992;4.198;2023-07-09T05:01:32;30.50;58.70
38854;DHT22;24606;51.992;4.198;2023-07-09T05:06:34;30.50;58.60
38854;DHT22;24606;51.992;4.198;2023-07-09T05:11:36;30.50;58.70
38854;DHT22;24606;51.992;4.198;2023-07-09T05:16:39;30.50;58.70
38854;DHT22;24606;51.992;4.198;2023-07-09T05:21:41;30.40;58.60
38854;DHT22;24606;51.992;4.198;2023-07-09T05:26:43;30.40;58.60
38854;DHT22;24606;51.992;4.198;2023-07-09T05:31:46;30.40;58.60
38854;DHT22;24606;51.992;4.198;2023-07-09T05:36:48;30.40;58.60
38854;DHT22;24606;51.992;4.198;2023-07-09T05:41:50;30.40;58.40
38854;DHT22;24606;51.992;4.198;2023-07-09T05:46:53;30.40;58.50
38854;DHT22;24606;51.992;4.198;2023-07-09T05:51:55;30.40;58.60
38854;DHT22;24606;51.992;4.198;2023-07-09T05:56:57;30.40;58.50
38854;DHT22;24606;51.992;4.198;2023-07-09T06:02:00;29.90;59.60
38854;DHT22;24606;51.992;4.198;2023-07-09T06:07:03;30.00;58.30
38854;DHT22;24606;51.992;4.198;2023-07-09T06:12:06;29.70;57.70
38854;DHT22;24606;51.992;4.198;2023-07-09T06:17:09;29.60;57.10
38854;DHT22;24606;51.992;4.198;2023-07-09T06:22:11;29.80;59.90
38854;DHT22;24606;51.992;4.198;2023-07-09T06:27:13;29.90;58.40
38854;DHT22;24606;51.992;4.198;2023-07-09T06:32:16;29.90;57.90
38854;DHT22;24606;51.992;4.198;2023-07-09T06:37:18;29.20;61.00
38854;DHT22;24606;51.992;4.198;2023-07-09T06:42:20;29.70;59.90
38854;DHT22;24606;51.992;4.198;2023-07-09T06:47:23;29.30;61.00
38854;DHT22;24606;51.992;4.198;2023-07-09T06:52:25;30.00;59.10
38854;DHT22;24606;51.992;4.198;2023-07-09T06:57:26;29.90;58.10
38854;DHT22;24606;51.992;4.198;2023-07-09T07:02:29;29.90;58.40
38854;DHT22;24606;51.992;4.198;2023-07-09T07:07:32;30.20;57.60
38854;DHT22;24606;51.992;4.198;2023-07-09T07:12:42;30.30;57.40
38854;DHT22;24606;51.992;4.198;2023-07-09T07:17:45;30.20;57.40
38854;DHT22;24606;51.992;4.198;2023-07-09T07:22:47;30.30;57.10
38854;DHT22;24606;51.992;4.198;2023-07-09T07:27:50;30.30;56.90
38854;DHT22;24606;51.992;4.198;2023-07-09T07:32:53;30.40;57.00
38854;DHT22;24606;51.992;4.198;2023-07-09T07:37:55;30.30;57.00
38854;DHT22;24606;51.992;4.198;2023-07-09T07:42:57;30.30;57.00
38854;DHT22;24606;51.992;4.198;2023-07-09T07:48:00;30.00;57.80
38854;DHT22;24606;51.992;4.198;2023-07-09T07:53:02;30.20;56.70
38854;DHT22;24606;51.992;4.198;2023-07-09T07:58:04;29.10;59.00
38854;DHT22;24606;51.992;4.198;2023-07-09T08:03:07;29.50;59.10
38854;DHT22;24606;51.992;4.198;2023-07-09T08:08:09;29.70;58.50
38854;DHT22;24606;51.992;4.198;2023-07-09T08:13:12;28.50;59.30
38854;DHT22;24606;51.992;4.198;2023-07-09T08:18:15;26.80;65.50
38854;DHT22;24606;51.992;4.198;2023-07-09T08:23:17;27.10;68.40
38854;DHT22;24606;51.992;4.198;2023-07-09T08:28:19;27.80;64.90
38854;DHT22;24606;51.992;4.198;2023-07-09T08:33:23;28.20;63.60
38854;DHT22;24606;51.992;4.198;2023-07-09T08:38:25;28.30;63.50
38854;DHT22;24606;51.992;4.198;2023-07-09T08:43:33;26.20;72.10
38854;DHT22;24606;51.992;4.198;2023-07-09T08:48:41;25.50;77.80
38854;DHT22;24606;51.992;4.198;2023-07-09T08:53:48;27.10;69.80
38854;DHT22;24606;51.992;4.198;2023-07-09T08:58:53;26.90;71.70
38854;DHT22;24606;51.992;4.198;2023-07-09T09:04:00;28.20;65.50
38854;DHT22;24606;51.992;4.198;2023-07-09T09:09:11;28.40;65.60
38854;DHT22;24606;51.992;4.198;2023-07-09T09:14:23;28.30;64.90
38854;DHT22;24606;51.992;4.198;2023-07-09T09:19:30;27.80;67.80
38854;DHT22;24606;51.992;4.198;2023-07-09T09:24:38;28.00;67.40
38854;DHT22;24606;51.992;4.198;2023-07-09T09:29:42;27.70;68.30
38854;DHT22;24606;51.992;4.198;2023-07-09T09:34:45;26.90;73.50
38854;DHT22;24606;51.992;4.198;2023-07-09T09:39:47;27.50;70.80
38854;DHT22;24606;51.992;4.198;2023-07-09T09:44:49;27.80;69.10
38854;DHT22;24606;51.992;4.198;2023-07-09T09:49:52;28.00;68.40
38854;DHT22;24606;51.992;4.198;2023-07-09T09:54:56;29.40;62.20
38854;DHT22;24606;51.992;4.198;2023-07-09T10:00:03;29.80;61.10
38854;DHT22;24606;51.992;4.198;2023-07-09T10:05:13;29.00;62.20
38854;DHT22;24606;51.992;4.198;2023-07-09T10:10:20;28.00;66.00
38854;DHT22;24606;51.992;4.198;2023-07-09T10:15:32;27.90;67.60
38854;DHT22;24606;51.992;4.198;2023-07-09T10:20:45;27.80;69.90
38854;DHT22;24606;51.992;4.198;2023-07-09T10:25:52;27.60;70.10
38854;DHT22;24606;51.992;4.198;2023-07-09T10:31:03;27.40;69.50
38854;DHT22;24606;51.992;4.198;2023-07-09T10:36:24;27.50;72.10
38854;DHT22;24606;51.992;4.198;2023-07-09T10:41:31;27.50;70.80
38854;DHT22;24606;51.992;4.198;2023-07-09T10:46:38;27.40;69.70
38854;DHT22;24606;51.992;4.198;2023-07-09T10:51:46;27.60;70.30
38854;DHT22;24606;51.992;4.198;2023-07-09T10:56:56;27.70;71.90
38854;DHT22;24606;51.992;4.198;2023-07-09T11:02:13;27.40;69.00
38854;DHT22;24606;51.992;4.198;2023-07-09T11:07:22;27.10;74.40
38854;DHT22;24606;51.992;4.198;2023-07-09T11:12:29;27.50;72.00
38854;DHT22;24606;51.992;4.198;2023-07-09T11:17:34;27.60;72.50
38854;DHT22;24606;51.992;4.198;2023-07-09T11:22:40;27.10;74.90
38854;DHT22;24606;51.992;4.198;2023-07-09T11:27:49;27.30;77.00
38854;DHT22;24606;51.992;4.198;2023-07-09T11:32:57;27.30;75.20
38854;DHT22;24606;51.992;4.198;2023-07-09T11:38:07;27.70;75.20
38854;DHT22;24606;51.992;4.198;2023-07-09T11:43:28;27.00;79.60
38854;DHT22;24606;51.992;4.198;2023-07-09T11:48:32;28.20;71.40
38854;DHT22;24606;51.992;4.198;2023-07-09T11:53:42;26.40;83.90
38854;DHT22;24606;51.992;4.198;2023-07-09T11:58:51;26.30;87.60
38854;DHT22;24606;51.992;4.198;2023-07-09T12:03:56;24.90;93.30
38854;DHT22;24606;51.992;4.198;2023-07-09T12:09:00;24.00;96.40
38854;DHT22;24606;51.992;4.198;2023-07-09T12:14:08;24.50;99.00
38854;DHT22;24606;51.992;4.198;2023-07-09T12:19:11;24.30;98.20
38854;DHT22;24606;51.992;4.198;2023-07-09T12:24:22;25.20;96.30
38854;DHT22;24606;51.992;4.198;2023-07-09T12:29:25;25.50;96.00
38854;DHT22;24606;51.992;4.198;2023-07-09T12:34:31;26.00;92.00
38854;DHT22;24606;51.992;4.198;2023-07-09T12:39:34;27.50;85.00
38854;DHT22;24606;51.992;4.198;2023-07-09T12:44:39;28.70;78.20
38854;DHT22;24606;51.992;4.198;2023-07-09T12:49:42;28.20;78.10
38854;DHT22;24606;51.992;4.198;2023-07-09T12:54:55;28.10;79.40
38854;DHT22;24606;51.992;4.198;2023-07-09T12:59:57;28.40;79.70
38854;DHT22;24606;51.992;4.198;2023-07-09T13:05:02;30.50;65.50
38854;DHT22;24606;51.992;4.198;2023-07-09T13:10:15;28.20;69.30
38854;DHT22;24606;51.992;4.198;2023-07-09T13:15:26;29.50;68.10
38854;DHT22;24606;51.992;4.198;2023-07-09T13:20:29;29.50;62.90
38854;DHT22;24606;51.992;4.198;2023-07-09T13:25:33;29.50;64.60
38854;DHT22;24606;51.992;4.198;2023-07-09T13:30:36;29.90;65.10
38854;DHT22;24606;51.992;4.198;2023-07-09T13:35:38;30.50;62.80
38854;DHT22;24606;51.992;4.198;2023-07-09T13:40:42;31.30;60.20
38854;DHT22;24606;51.992;4.198;2023-07-09T13:45:45;31.00;60.60
38854;DHT22;24606;51.992;4.198;2023-07-09T13:50:50;31.50;59.30
38854;DHT22;24606;51.992;4.198;2023-07-09T13:55:54;29.10;64.70
38854;DHT22;24606;51.992;4.198;2023-07-09T14:00:59;31.20;60.50
38854;DHT22;24606;51.992;4.198;2023-07-09T14:06:05;31.60;59.20
38854;DHT22;24606;51.992;4.198;2023-07-09T14:11:10;31.60;58.60
38854;DHT22;24606;51.992;4.198;2023-07-09T14:16:13;31.70;58.40
38854;DHT22;24606;51.992;4.198;2023-07-09T14:21:19;29.70;64.70
38854;DHT22;24606;51.992;4.198;2023-07-09T14:26:23;31.30;59.90
38854;DHT22;24606;51.992;4.198;2023-07-09T14:31:28;31.60;59.00
38854;DHT22;24606;51.992;4.198;2023-07-09T14:36:32;31.60;58.80
38854;DHT22;24606;51.992;4.198;2023-07-09T14:41:36;31.70;58.50
38854;DHT22;24606;51.992;4.198;2023-07-09T14:46:38;31.70;58.30
38854;DHT22;24606;51.992;4.198;2023-07-09T14:51:40;31.70;58.30
38854;DHT22;24606;51.992;4.198;2023-07-09T14:56:44;31.70;58.20
38854;DHT22;24606;51.992;4.198;2023-07-09T15:01:46;31.70;58.20
38854;DHT22;24606;51.992;4.198;2023-07-09T15:06:49;31.70;58.20
38854;DHT22;24606;51.992;4.198;2023-07-09T15:11:54;30.00;64.40
38854;DHT22;24606;51.992;4.198;2023-07-09T15:16:56;31.30;60.00
38854;DHT22;24606;51.992;4.198;2023-07-09T15:21:58;30.30;62.40
38854;DHT22;24606;51.992;4.198;2023-07-09T15:27:01;30.20;61.70
38854;DHT22;24606;51.992;4.198;2023-07-09T15:32:05;30.20;62.70
38854;DHT22;24606;51.992;4.198;2023-07-09T15:37:12;30.50;61.60
38854;DHT22;24606;51.992;4.198;2023-07-09T15:42:16;29.30;65.50
38854;DHT22;24606;51.992;4.198;2023-07-09T15:47:26;30.70;61.90
38854;DHT22;24606;51.992;4.198;2023-07-09T15:52:28;30.40;58.60
38854;DHT22;24606;51.992;4.198;2023-07-09T15:57:31;31.30;60.90
38854;DHT22;24606;51.992;4.198;2023-07-09T16:02:33;30.80;61.20
38854;DHT22;24606;51.992;4.198;2023-07-09T16:07:35;31.30;59.70
38854;DHT22;24606;51.992;4.198;2023-07-09T16:12:38;31.70;58.60
38854;DHT22;24606;51.992;4.198;2023-07-09T16:17:41;32.00;57.70
38854;DHT22;24606;51.992;4.198;2023-07-09T16:22:46;31.10;57.10
38854;DHT22;24606;51.992;4.198;2023-07-09T16:27:50;29.60;60.80
38854;DHT22;24606;51.992;4.198;2023-07-09T16:32:52;29.50;62.40
38854;DHT22;24606;51.992;4.198;2023-07-09T16:37:54;30.50;62.20
38854;DHT22;24606;51.992;4.198;2023-07-09T16:42:59;30.00;65.10
38854;DHT22;24606;51.992;4.198;2023-07-09T16:48:02;29.30;63.60
38854;DHT22;24606;51.992;4.198;2023-07-09T16:53:11;29.30;67.40
38854;DHT22;24606;51.992;4.198;2023-07-09T16:58:20;30.20;60.50
38854;DHT22;24606;51.992;4.198;2023-07-09T17:03:25;28.90;67.80
38854;DHT22;24606;51.992;4.198;2023-07-09T17:08:27;29.20;62.40
38854;DHT22;24606;51.992;4.198;2023-07-09T17:13:30;27.10;71.80
38854;DHT22;24606;51.992;4.198;2023-07-09T17:18:32;25.80;81.10
38854;DHT22;24606;51.992;4.198;2023-07-09T17:23:34;28.30;76.10
38854;DHT22;24606;51.992;4.198;2023-07-09T17:28:37;30.10;68.60
38854;DHT22;24606;51.992;4.198;2023-07-09T17:33:39;30.40;71.70
38854;DHT22;24606;51.992;4.198;2023-07-09T17:38:41;31.00;66.40
38854;DHT22;24606;51.992;4.198;2023-07-09T17:43:44;30.30;62.60
38854;DHT22;24606;51.992;4.198;2023-07-09T17:48:46;30.30;63.30
38854;DHT22;24606;51.992;4.198;2023-07-09T17:53:48;31.10;60.90
38854;DHT22;24606;51.992;4.198;2023-07-09T17:58:51;31.30;59.70
38854;DHT22;24606;51.992;4.198;2023-07-09T18:03:53;31.40;59.30
38854;DHT22;24606;51.992;4.198;2023-07-09T18:08:55;31.30;58.90
38854;DHT22;24606;51.992;4.198;2023-07-09T18:13:59;31.40;58.70
38854;DHT22;24606;51.992;4.198;2023-07-09T18:19:00;31.40;58.50
38854;DHT22;24606;51.992;4.198;2023-07-09T18:24:05;31.30;58.10
38854;DHT22;24606;51.992;4.198;2023-07-09T18:29:13;31.50;58.10
38854;DHT22;24606;51.992;4.198;2023-07-09T18:34:20;31.40;58.50
38854;DHT22;24606;51.992;4.198;2023-07-09T18:39:22;31.50;58.20
38854;DHT22;24606;51.992;4.198;2023-07-09T18:44:25;31.40;57.90
38854;DHT22;24606;51.992;4.198;2023-07-09T18:49:28;31.40;57.70
38854;DHT22;24606;51.992;4.198;2023-07-09T18:54:30;31.40;57.70
38854;DHT22;24606;51.992;4.198;2023-07-09T18:59:34;31.40;57.60
38854;DHT22;24606;51.992;4.198;2023-07-09T19:04:35;31.40;57.60
38854;DHT22;24606;51.992;4.198;2023-07-09T19:09:37;31.30;57.50
38854;DHT22;24606;51.992;4.198;2023-07-09T19:14:41;31.00;57.80
38854;DHT22;24606;51.992;4.198;2023-07-09T19:19:43;31.10;57.90
38854;DHT22;24606;51.992;4.198;2023-07-09T19:24:45;31.20;57.60
38854;DHT22;24606;51.992;4.198;2023-07-09T19:29:48;31.20;57.60
38854;DHT22;24606;51.992;4.198;2023-07-09T19:34:51;31.10;57.40
38854;DHT22;24606;51.992;4.198;2023-07-09T19:39:53;31.10;57.30
38854;DHT22;24606;51.992;4.198;2023-07-09T19:44:56;31.10;57.30
38854;DHT22;24606;51.992;4.198;2023-07-09T19:49:58;31.10;57.30
38854;DHT22;24606;51.992;4.198;2023-07-09T19:55:06;31.10;57.20
38854;DHT22;24606;51.992;4.198;2023-07-09T20:00:16;31.00;57.10
38854;DHT22;24606;51.992;4.198;2023-07-09T20:05:20;31.00;57.10
38854;DHT22;24606;51.992;4.198;2023-07-09T20:10:23;31.00;57.30
38854;DHT22;24606;51.992;4.198;2023-07-09T20:15:27;30.90;57.10
38854;DHT22;24606;51.992;4.198;2023-07-09T20:20:29;30.90;57.00
38854;DHT22;24606;51.992;4.198;2023-07-09T20:25:31;30.90;57.00
38854;DHT22;24606;51.992;4.198;2023-07-09T20:30:34;30.80;57.00
38854;DHT22;24606;51.992;4.198;2023-07-09T20:35:37;30.80;57.00
38854;DHT22;24606;51.992;4.198;2023-07-09T20:40:39;30.70;57.10
38854;DHT22;24606;51.992;4.198;2023-07-09T20:45:42;30.70;57.30
38854;DHT22;24606;51.992;4.198;2023-07-09T20:50:45;30.60;57.30
38854;DHT22;24606;51.992;4.198;2023-07-09T20:55:47;30.60;57.50
38854;DHT22;24606;51.992;4.198;2023-07-09T21:00:52;30.60;57.50
38854;DHT22;24606;51.992;4.198;2023-07-09T21:05:54;30.50;57.60
38854;DHT22;24606;51.992;4.198;2023-07-09T21:10:56;30.50;57.60
38854;DHT22;24606;51.992;4.198;2023-07-09T21:15:59;30.50;57.70
38854;DHT22;24606;51.992;4.198;2023-07-09T21:21:03;30.50;57.80
38854;DHT22;24606;51.992;4.198;2023-07-09T21:26:05;30.50;57.80
38854;DHT22;24606;51.992;4.198;2023-07-09T21:31:15;30.40;57.80
38854;DHT22;24606;51.992;4.198;2023-07-09T21:36:18;30.30;57.80
38854;DHT22;24606;51.992;4.198;2023-07-09T21:41:20;30.30;58.00
38854;DHT22;24606;51.992;4.198;2023-07-09T21:46:27;30.30;58.10
38854;DHT22;24606;51.992;4.198;2023-07-09T21:51:29;30.30;58.20
38854;DHT22;24606;51.992;4.198;2023-07-09T21:56:31;30.30;58.10
38854;DHT22;24606;51.992;4.198;2023-07-09T22:01:34;30.20;58.10
38854;DHT22;24606;51.992;4.198;2023-07-09T22:06:36;30.20;58.30
38854;DHT22;24606;51.992;4.198;2023-07-09T22:11:38;30.20;58.80
38854;DHT22;24606;51.992;4.198;2023-07-09T22:16:51;30.20;58.30
38854;DHT22;24606;51.992;4.198;2023-07-09T22:21:53;30.10;58.40
38854;DHT22;24606;51.992;4.198;2023-07-09T22:26:54;30.10;58.40
38854;DHT22;24606;51.992;4.198;2023-07-09T22:31:57;30.10;58.40
38854;DHT22;24606;51.992;4.198;2023-07-09T22:36:59;30.00;58.40
38854;DHT22;24606;51.992;4.198;2023-07-09T22:42:01;30.00;58.40
38854;DHT22;24606;51.992;4.198;2023-07-09T22:47:05;30.00;58.50
38854;DHT22;24606;51.992;4.198;2023-07-09T22:52:08;30.00;58.50
38854;DHT22;24606;51.992;4.198;2023-07-09T22:57:11;30.00;58.50
38854;DHT22;24606;51.992;4.198;2023-07-09T23:02:14;29.90;58.60
38854;DHT22;24606;51.992;4.198;2023-07-09T23:07:16;29.90;58.70
38854;DHT22;24606;51.992;4.198;2023-07-09T23:12:18;29.90;58.70
38854;DHT22;24606;51.992;4.198;2023-07-09T23:17:21;29.90;58.80
38854;DHT22;24606;51.992;4.198;2023-07-09T23:22:24;29.80;58.70
38854;DHT22;24606;51.992;4.198;2023-07-09T23:27:26;29.80;58.80
38854;DHT22;24606;51.992;4.198;2023-07-09T23:32:30;29.80;58.90
38854;DHT22;24606;51.992;4.198;2023-07-09T23:37:31;29.80;59.00
38854;DHT22;24606;51.992;4.198;2023-07-09T23:42:33;29.70;58.90
38854;DHT22;24606;51.992;4.198;2023-07-09T23:47:37;29.70;59.00
38854;DHT22;24606;51.992;4.198;2023-07-09T23:52:38;29.70;59.00
38854;DHT22;24606;51.992;4.198;2023-07-09T23:57:44;29.60;59.10
